sensor_id;sensor_type;location;lat;lon;timestamp;P1;durP1;ratioP1;P2;durP2;ratioP2
61617;SDS011;47518;51.776;9.370;2023-02-28T00:00:04;12.40;;;7.35;;
61617;SDS011;47518;51.776;9.370;2023-02-28T00:02:37;10.00;;;6.60;;
61617;SDS011;47518;51.776;9.370;2023-02-28T00:05:04;10.57;;;7.20;;
61617;SDS011;47518;51.776;9.370;2023-02-28T00:07:30;10.05;;;6.95;;
61617;SDS011;47518;51.776;9.370;2023-02-28T00:09:56;11.85;;;7.40;;
61617;SDS011;47518;51.776;9.370;2023-02-28T00:12:21;10.98;;;7.70;;
61617;SDS011;47518;51.776;9.370;2023-02-28T00:14:47;11.30;;;7.20;;
61617;SDS011;47518;51.776;9.370;2023-02-28T00:17:12;10.95;;;7.88;;
61617;SDS011;47518;51.776;9.370;2023-02-28T00:19:37;12.15;;;7.95;;
61617;SDS011;47518;51.776;9.370;2023-02-28T00:22:02;14.52;;;8.70;;
61617;SDS011;47518;51.776;9.370;2023-02-28T00:24:28;12.90;;;8.27;;
61617;SDS011;47518;51.776;9.370;2023-02-28T00:26:53;12.38;;;7.70;;
61617;SDS011;47518;51.776;9.370;2023-02-28T00:29:19;12.27;;;8.10;;
61617;SDS011;47518;51.776;9.370;2023-02-28T00:31:44;12.82;;;8.00;;
61617;SDS011;47518;51.776;9.370;2023-02-28T00:34:09;12.73;;;8.45;;
61617;SDS011;47518;51.776;9.370;2023-02-28T00:36:35;10.93;;;7.75;;
61617;SDS011;47518;51.776;9.370;2023-02-28T00:39:00;11.00;;;7.38;;
61617;SDS011;47518;51.776;9.370;2023-02-28T00:41:25;12.23;;;7.43;;
61617;SDS011;47518;51.776;9.370;2023-02-28T00:43:50;12.68;;;7.90;;
61617;SDS011;47518;51.776;9.370;2023-02-28T00:46:16;13.38;;;8.30;;
61617;SDS011;47518;51.776;9.370;2023-02-28T00:48:41;12.23;;;7.85;;
61617;SDS011;47518;51.776;9.370;2023-02-28T00:51:06;11.25;;;7.68;;
61617;SDS011;47518;51.776;9.370;2023-02-28T00:53:32;11.75;;;8.15;;
61617;SDS011;47518;51.776;9.370;2023-02-28T00:55:57;13.02;;;7.90;;
61617;SDS011;47518;51.776;9.370;2023-02-28T00:58:23;12.18;;;7.95;;
61617;SDS011;47518;51.776;9.370;2023-02-28T01:00:49;10.23;;;7.45;;
61617;SDS011;47518;51.776;9.370;2023-02-28T01:03:16;8.77;;;6.72;;
61617;SDS011;47518;51.776;9.370;2023-02-28T01:05:43;11.57;;;7.40;;
61617;SDS011;47518;51.776;9.370;2023-02-28T01:08:08;9.40;;;7.03;;
61617;SDS011;47518;51.776;9.370;2023-02-28T01:10:33;9.27;;;6.57;;
61617;SDS011;47518;51.776;9.370;2023-02-28T01:13:01;14.18;;;8.38;;
61617;SDS011;47518;51.776;9.370;2023-02-28T01:15:27;11.95;;;7.65;;
61617;SDS011;47518;51.776;9.370;2023-02-28T01:17:52;12.07;;;8.00;;
61617;SDS011;47518;51.776;9.370;2023-02-28T01:20:17;11.50;;;7.10;;
61617;SDS011;47518;51.776;9.370;2023-02-28T01:22:43;10.05;;;6.63;;
61617;SDS011;47518;51.776;9.370;2023-02-28T01:25:08;11.20;;;7.00;;
61617;SDS011;47518;51.776;9.370;2023-02-28T01:27:34;10.32;;;6.88;;
61617;SDS011;47518;51.776;9.370;2023-02-28T01:29:59;10.20;;;6.95;;
61617;SDS011;47518;51.776;9.370;2023-02-28T01:32:24;9.13;;;6.57;;
61617;SDS011;47518;51.776;9.370;2023-02-28T01:34:50;9.43;;;6.00;;
61617;SDS011;47518;51.776;9.370;2023-02-28T01:37:15;10.02;;;5.60;;
61617;SDS011;47518;51.776;9.370;2023-02-28T01:39:40;8.35;;;5.63;;
61617;SDS011;47518;51.776;9.370;2023-02-28T01:42:07;6.88;;;5.22;;
61617;SDS011;47518;51.776;9.370;2023-02-28T01:58:00;6.65;;;5.30;;
61617;SDS011;47518;51.776;9.370;2023-02-28T02:00:30;7.00;;;5.22;;
61617;SDS011;47518;51.776;9.370;2023-02-28T02:02:58;6.75;;;5.10;;
61617;SDS011;47518;51.776;9.370;2023-02-28T02:05:27;5.93;;;4.90;;
61617;SDS011;47518;51.776;9.370;2023-02-28T02:07:56;5.75;;;4.88;;
61617;SDS011;47518;51.776;9.370;2023-02-28T02:10:34;6.43;;;4.88;;
61617;SDS011;47518;51.776;9.370;2023-02-28T02:38:49;8.43;;;5.68;;
61617;SDS011;47518;51.776;9.370;2023-02-28T02:41:23;8.77;;;6.22;;
61617;SDS011;47518;51.776;9.370;2023-02-28T02:43:54;9.02;;;6.00;;
61617;SDS011;47518;51.776;9.370;2023-02-28T02:46:28;7.85;;;6.25;;
61617;SDS011;47518;51.776;9.370;2023-02-28T02:48:57;8.00;;;5.97;;
61617;SDS011;47518;51.776;9.370;2023-02-28T02:51:28;6.72;;;5.80;;
61617;SDS011;47518;51.776;9.370;2023-02-28T02:53:59;6.57;;;5.85;;
61617;SDS011;47518;51.776;9.370;2023-02-28T02:56:30;6.15;;;5.30;;
61617;SDS011;47518;51.776;9.370;2023-02-28T02:59:01;6.18;;;5.50;;
61617;SDS011;47518;51.776;9.370;2023-02-28T03:01:29;6.63;;;5.30;;
61617;SDS011;47518;51.776;9.370;2023-02-28T03:03:57;6.50;;;5.10;;
61617;SDS011;47518;51.776;9.370;2023-02-28T03:06:26;6.90;;;5.18;;
61617;SDS011;47518;51.776;9.370;2023-02-28T03:08:52;7.07;;;5.20;;
61617;SDS011;47518;51.776;9.370;2023-02-28T03:11:18;7.40;;;5.47;;
61617;SDS011;47518;51.776;9.370;2023-02-28T03:13:50;7.45;;;5.15;;
61617;SDS011;47518;51.776;9.370;2023-02-28T03:26:59;5.45;;;4.55;;
61617;SDS011;47518;51.776;9.370;2023-02-28T03:29:33;7.18;;;4.70;;
61617;SDS011;47518;51.776;9.370;2023-02-28T03:32:05;5.22;;;4.70;;
61617;SDS011;47518;51.776;9.370;2023-02-28T03:34:40;5.35;;;4.70;;
61617;SDS011;47518;51.776;9.370;2023-02-28T03:37:15;5.68;;;4.75;;
61617;SDS011;47518;51.776;9.370;2023-02-28T03:39:45;4.90;;;4.38;;
61617;SDS011;47518;51.776;9.370;2023-02-28T03:42:15;5.28;;;4.50;;
61617;SDS011;47518;51.776;9.370;2023-02-28T03:44:45;6.13;;;4.40;;
61617;SDS011;47518;51.776;9.370;2023-02-28T03:47:17;4.87;;;4.37;;
61617;SDS011;47518;51.776;9.370;2023-02-28T03:49:50;4.88;;;4.00;;
61617;SDS011;47518;51.776;9.370;2023-02-28T03:52:22;4.75;;;4.32;;
61617;SDS011;47518;51.776;9.370;2023-02-28T03:54:51;4.43;;;4.03;;
61617;SDS011;47518;51.776;9.370;2023-02-28T04:00:10;5.78;;;4.03;;
61617;SDS011;47518;51.776;9.370;2023-02-28T04:02:43;5.35;;;4.15;;
61617;SDS011;47518;51.776;9.370;2023-02-28T04:05:09;4.90;;;4.30;;
61617;SDS011;47518;51.776;9.370;2023-02-28T04:07:34;4.85;;;4.15;;
61617;SDS011;47518;51.776;9.370;2023-02-28T04:10:00;4.40;;;4.00;;
61617;SDS011;47518;51.776;9.370;2023-02-28T04:12:25;7.60;;;4.00;;
61617;SDS011;47518;51.776;9.370;2023-02-28T04:14:51;4.38;;;3.80;;
61617;SDS011;47518;51.776;9.370;2023-02-28T04:17:17;6.07;;;4.43;;
61617;SDS011;47518;51.776;9.370;2023-02-28T04:19:43;7.00;;;4.10;;
61617;SDS011;47518;51.776;9.370;2023-02-28T04:22:09;7.00;;;4.80;;
61617;SDS011;47518;51.776;9.370;2023-02-28T04:24:34;8.35;;;5.80;;
61617;SDS011;47518;51.776;9.370;2023-02-28T04:27:00;9.35;;;6.30;;
61617;SDS011;47518;51.776;9.370;2023-02-28T04:29:27;5.88;;;5.28;;
61617;SDS011;47518;51.776;9.370;2023-02-28T04:31:54;8.02;;;5.90;;
61617;SDS011;47518;51.776;9.370;2023-02-28T04:34:22;6.63;;;5.47;;
61617;SDS011;47518;51.776;9.370;2023-02-28T04:36:49;6.53;;;5.03;;
61617;SDS011;47518;51.776;9.370;2023-02-28T04:39:16;8.13;;;5.40;;
61617;SDS011;47518;51.776;9.370;2023-02-28T04:41:43;9.52;;;6.55;;
61617;SDS011;47518;51.776;9.370;2023-02-28T04:44:09;9.82;;;6.53;;
61617;SDS011;47518;51.776;9.370;2023-02-28T04:46:34;9.85;;;6.32;;
61617;SDS011;47518;51.776;9.370;2023-02-28T04:48:59;8.38;;;6.07;;
61617;SDS011;47518;51.776;9.370;2023-02-28T04:51:25;9.85;;;5.53;;
61617;SDS011;47518;51.776;9.370;2023-02-28T04:53:50;9.25;;;5.35;;
61617;SDS011;47518;51.776;9.370;2023-02-28T04:56:16;9.68;;;5.50;;
61617;SDS011;47518;51.776;9.370;2023-02-28T04:58:42;6.47;;;4.80;;
61617;SDS011;47518;51.776;9.370;2023-02-28T05:03:55;6.20;;;4.57;;
61617;SDS011;47518;51.776;9.370;2023-02-28T05:06:23;6.10;;;4.40;;
61617;SDS011;47518;51.776;9.370;2023-02-28T05:08:50;7.20;;;5.10;;
61617;SDS011;47518;51.776;9.370;2023-02-28T05:11:17;6.90;;;4.80;;
61617;SDS011;47518;51.776;9.370;2023-02-28T05:13:46;6.97;;;4.72;;
61617;SDS011;47518;51.776;9.370;2023-02-28T05:16:11;6.95;;;4.55;;
61617;SDS011;47518;51.776;9.370;2023-02-28T05:18:37;7.05;;;4.80;;
61617;SDS011;47518;51.776;9.370;2023-02-28T05:21:03;6.53;;;4.75;;
61617;SDS011;47518;51.776;9.370;2023-02-28T05:23:28;6.07;;;4.78;;
61617;SDS011;47518;51.776;9.370;2023-02-28T05:25:54;7.30;;;5.00;;
61617;SDS011;47518;51.776;9.370;2023-02-28T05:28:20;8.55;;;4.90;;
61617;SDS011;47518;51.776;9.370;2023-02-28T05:30:46;6.07;;;4.13;;
61617;SDS011;47518;51.776;9.370;2023-02-28T05:33:11;6.18;;;4.68;;
61617;SDS011;47518;51.776;9.370;2023-02-28T05:35:38;6.47;;;4.50;;
61617;SDS011;47518;51.776;9.370;2023-02-28T05:38:04;7.28;;;4.82;;
61617;SDS011;47518;51.776;9.370;2023-02-28T05:40:29;14.13;;;6.80;;
61617;SDS011;47518;51.776;9.370;2023-02-28T05:42:55;11.18;;;5.55;;
61617;SDS011;47518;51.776;9.370;2023-02-28T05:45:20;9.10;;;5.60;;
61617;SDS011;47518;51.776;9.370;2023-02-28T05:47:45;8.00;;;4.87;;
61617;SDS011;47518;51.776;9.370;2023-02-28T05:50:11;5.23;;;4.73;;
61617;SDS011;47518;51.776;9.370;2023-02-28T05:52:36;7.22;;;4.82;;
61617;SDS011;47518;51.776;9.370;2023-02-28T05:55:02;5.15;;;4.63;;
61617;SDS011;47518;51.776;9.370;2023-02-28T05:57:28;7.30;;;5.13;;
61617;SDS011;47518;51.776;9.370;2023-02-28T05:59:53;6.50;;;4.83;;
61617;SDS011;47518;51.776;9.370;2023-02-28T06:02:19;10.83;;;4.90;;
61617;SDS011;47518;51.776;9.370;2023-02-28T06:04:44;7.23;;;4.77;;
61617;SDS011;47518;51.776;9.370;2023-02-28T06:07:10;7.53;;;5.83;;
61617;SDS011;47518;51.776;9.370;2023-02-28T06:09:36;7.07;;;5.65;;
61617;SDS011;47518;51.776;9.370;2023-02-28T06:35:29;5.70;;;4.82;;
61617;SDS011;47518;51.776;9.370;2023-02-28T06:37:54;5.60;;;4.70;;
61617;SDS011;47518;51.776;9.370;2023-02-28T06:40:20;6.03;;;4.50;;
61617;SDS011;47518;51.776;9.370;2023-02-28T06:42:45;8.02;;;4.45;;
61617;SDS011;47518;51.776;9.370;2023-02-28T06:45:11;7.37;;;4.90;;
61617;SDS011;47518;51.776;9.370;2023-02-28T06:47:38;7.68;;;5.25;;
61617;SDS011;47518;51.776;9.370;2023-02-28T06:50:04;8.15;;;5.10;;
61617;SDS011;47518;51.776;9.370;2023-02-28T06:52:31;9.15;;;5.70;;
61617;SDS011;47518;51.776;9.370;2023-02-28T06:54:56;9.35;;;5.95;;
61617;SDS011;47518;51.776;9.370;2023-02-28T06:57:27;12.18;;;5.57;;
61617;SDS011;47518;51.776;9.370;2023-02-28T06:59:55;8.83;;;6.10;;
61617;SDS011;47518;51.776;9.370;2023-02-28T07:02:21;12.32;;;6.45;;
61617;SDS011;47518;51.776;9.370;2023-02-28T07:04:46;12.75;;;6.32;;
61617;SDS011;47518;51.776;9.370;2023-02-28T07:07:11;17.58;;;7.07;;
61617;SDS011;47518;51.776;9.370;2023-02-28T07:09:37;15.68;;;7.47;;
61617;SDS011;47518;51.776;9.370;2023-02-28T07:12:02;15.10;;;7.25;;
61617;SDS011;47518;51.776;9.370;2023-02-28T07:14:27;12.77;;;7.20;;
61617;SDS011;47518;51.776;9.370;2023-02-28T07:16:53;11.13;;;6.78;;
61617;SDS011;47518;51.776;9.370;2023-02-28T07:19:18;11.30;;;6.80;;
61617;SDS011;47518;51.776;9.370;2023-02-28T07:21:43;11.93;;;6.83;;
61617;SDS011;47518;51.776;9.370;2023-02-28T07:24:09;9.52;;;6.45;;
61617;SDS011;47518;51.776;9.370;2023-02-28T07:26:35;10.25;;;5.95;;
61617;SDS011;47518;51.776;9.370;2023-02-28T07:29:00;9.23;;;5.90;;
61617;SDS011;47518;51.776;9.370;2023-02-28T07:31:27;9.35;;;5.70;;
61617;SDS011;47518;51.776;9.370;2023-02-28T07:33:52;7.93;;;5.50;;
61617;SDS011;47518;51.776;9.370;2023-02-28T07:36:18;12.10;;;6.50;;
61617;SDS011;47518;51.776;9.370;2023-02-28T07:38:45;11.18;;;6.80;;
61617;SDS011;47518;51.776;9.370;2023-02-28T07:41:15;11.65;;;6.82;;
61617;SDS011;47518;51.776;9.370;2023-02-28T07:43:41;12.85;;;6.57;;
61617;SDS011;47518;51.776;9.370;2023-02-28T07:46:08;10.82;;;6.90;;
61617;SDS011;47518;51.776;9.370;2023-02-28T07:48:35;10.93;;;6.60;;
61617;SDS011;47518;51.776;9.370;2023-02-28T07:51:01;8.88;;;6.38;;
61617;SDS011;47518;51.776;9.370;2023-02-28T07:53:28;9.20;;;6.65;;
61617;SDS011;47518;51.776;9.370;2023-02-28T07:55:54;10.52;;;6.88;;
61617;SDS011;47518;51.776;9.370;2023-02-28T07:58:20;8.75;;;6.45;;
61617;SDS011;47518;51.776;9.370;2023-02-28T08:00:46;9.70;;;6.10;;
61617;SDS011;47518;51.776;9.370;2023-02-28T08:03:11;10.10;;;5.85;;
61617;SDS011;47518;51.776;9.370;2023-02-28T08:05:38;8.40;;;5.50;;
61617;SDS011;47518;51.776;9.370;2023-02-28T08:08:05;9.48;;;5.97;;
61617;SDS011;47518;51.776;9.370;2023-02-28T08:10:30;12.57;;;5.82;;
61617;SDS011;47518;51.776;9.370;2023-02-28T08:12:56;9.63;;;5.97;;
61617;SDS011;47518;51.776;9.370;2023-02-28T08:15:21;7.40;;;5.50;;
61617;SDS011;47518;51.776;9.370;2023-02-28T08:17:46;10.55;;;4.95;;
61617;SDS011;47518;51.776;9.370;2023-02-28T08:20:12;9.07;;;4.97;;
61617;SDS011;47518;51.776;9.370;2023-02-28T08:22:38;5.70;;;4.43;;
61617;SDS011;47518;51.776;9.370;2023-02-28T08:25:03;6.13;;;4.57;;
61617;SDS011;47518;51.776;9.370;2023-02-28T08:27:29;10.68;;;5.68;;
61617;SDS011;47518;51.776;9.370;2023-02-28T08:29:55;9.50;;;5.07;;
61617;SDS011;47518;51.776;9.370;2023-02-28T08:32:20;7.63;;;5.22;;
61617;SDS011;47518;51.776;9.370;2023-02-28T08:34:45;8.05;;;5.30;;
61617;SDS011;47518;51.776;9.370;2023-02-28T08:37:12;9.90;;;5.97;;
61617;SDS011;47518;51.776;9.370;2023-02-28T08:39:37;9.43;;;4.93;;
61617;SDS011;47518;51.776;9.370;2023-02-28T08:42:03;9.57;;;4.80;;
61617;SDS011;47518;51.776;9.370;2023-02-28T08:44:28;8.85;;;5.47;;
61617;SDS011;47518;51.776;9.370;2023-02-28T08:46:54;7.10;;;5.30;;
61617;SDS011;47518;51.776;9.370;2023-02-28T08:49:19;6.38;;;5.07;;
61617;SDS011;47518;51.776;9.370;2023-02-28T08:51:44;6.10;;;4.90;;
61617;SDS011;47518;51.776;9.370;2023-02-28T08:54:10;7.50;;;4.80;;
61617;SDS011;47518;51.776;9.370;2023-02-28T08:56:41;6.53;;;4.25;;
61617;SDS011;47518;51.776;9.370;2023-02-28T08:59:08;6.45;;;4.60;;
61617;SDS011;47518;51.776;9.370;2023-02-28T09:01:34;6.65;;;4.78;;
61617;SDS011;47518;51.776;9.370;2023-02-28T09:03:59;6.53;;;4.20;;
61617;SDS011;47518;51.776;9.370;2023-02-28T09:06:26;5.50;;;4.28;;
61617;SDS011;47518;51.776;9.370;2023-02-28T09:08:52;4.85;;;4.25;;
61617;SDS011;47518;51.776;9.370;2023-02-28T09:11:18;5.78;;;4.35;;
61617;SDS011;47518;51.776;9.370;2023-02-28T09:13:44;5.45;;;4.25;;
61617;SDS011;47518;51.776;9.370;2023-02-28T09:16:10;6.55;;;4.60;;
61617;SDS011;47518;51.776;9.370;2023-02-28T09:18:38;5.13;;;4.35;;
61617;SDS011;47518;51.776;9.370;2023-02-28T09:21:05;9.60;;;4.18;;
61617;SDS011;47518;51.776;9.370;2023-02-28T09:23:33;7.57;;;4.63;;
61617;SDS011;47518;51.776;9.370;2023-02-28T09:25:59;6.13;;;4.72;;
61617;SDS011;47518;51.776;9.370;2023-02-28T09:28:24;5.45;;;4.40;;
61617;SDS011;47518;51.776;9.370;2023-02-28T09:30:51;5.72;;;4.53;;
61617;SDS011;47518;51.776;9.370;2023-02-28T09:33:18;5.45;;;4.30;;
61617;SDS011;47518;51.776;9.370;2023-02-28T09:35:46;5.60;;;4.03;;
61617;SDS011;47518;51.776;9.370;2023-02-28T09:38:12;5.55;;;4.30;;
61617;SDS011;47518;51.776;9.370;2023-02-28T09:40:39;8.68;;;4.60;;
61617;SDS011;47518;51.776;9.370;2023-02-28T09:43:14;8.10;;;4.85;;
61617;SDS011;47518;51.776;9.370;2023-02-28T09:45:41;7.25;;;4.65;;
61617;SDS011;47518;51.776;9.370;2023-02-28T10:06:28;6.40;;;4.75;;
61617;SDS011;47518;51.776;9.370;2023-02-28T10:09:08;5.38;;;4.55;;
61617;SDS011;47518;51.776;9.370;2023-02-28T10:11:40;7.18;;;4.40;;
61617;SDS011;47518;51.776;9.370;2023-02-28T10:14:12;5.88;;;4.72;;
61617;SDS011;47518;51.776;9.370;2023-02-28T10:16:43;6.13;;;5.13;;
61617;SDS011;47518;51.776;9.370;2023-02-28T10:19:20;5.85;;;4.60;;
61617;SDS011;47518;51.776;9.370;2023-02-28T10:21:58;6.03;;;4.95;;
61617;SDS011;47518;51.776;9.370;2023-02-28T10:24:32;8.13;;;4.90;;
61617;SDS011;47518;51.776;9.370;2023-02-28T10:27:06;8.98;;;5.07;;
61617;SDS011;47518;51.776;9.370;2023-02-28T10:29:40;6.50;;;4.80;;
61617;SDS011;47518;51.776;9.370;2023-02-28T10:32:10;5.90;;;4.53;;
61617;SDS011;47518;51.776;9.370;2023-02-28T10:34:40;6.43;;;4.72;;
61617;SDS011;47518;51.776;9.370;2023-02-28T10:37:06;5.95;;;4.53;;
61617;SDS011;47518;51.776;9.370;2023-02-28T10:39:41;5.07;;;4.38;;
61617;SDS011;47518;51.776;9.370;2023-02-28T10:42:28;5.53;;;3.97;;
61617;SDS011;47518;51.776;9.370;2023-02-28T10:47:57;4.95;;;4.45;;
61617;SDS011;47518;51.776;9.370;2023-02-28T10:50:29;5.93;;;4.35;;
61617;SDS011;47518;51.776;9.370;2023-02-28T10:53:16;6.75;;;4.10;;
61617;SDS011;47518;51.776;9.370;2023-02-28T10:56:15;4.25;;;3.40;;
61617;SDS011;47518;51.776;9.370;2023-02-28T11:01:50;4.43;;;3.88;;
61617;SDS011;47518;51.776;9.370;2023-02-28T11:04:19;6.28;;;3.92;;
61617;SDS011;47518;51.776;9.370;2023-02-28T11:06:59;4.43;;;3.90;;
61617;SDS011;47518;51.776;9.370;2023-02-28T11:09:27;3.67;;;3.38;;
61617;SDS011;47518;51.776;9.370;2023-02-28T11:11:57;3.75;;;3.40;;
61617;SDS011;47518;51.776;9.370;2023-02-28T11:14:25;3.83;;;3.53;;
61617;SDS011;47518;51.776;9.370;2023-02-28T11:16:53;4.90;;;4.10;;
61617;SDS011;47518;51.776;9.370;2023-02-28T11:19:23;4.43;;;4.00;;
61617;SDS011;47518;51.776;9.370;2023-02-28T11:21:54;3.95;;;3.60;;
61617;SDS011;47518;51.776;9.370;2023-02-28T11:24:24;5.82;;;4.20;;
61617;SDS011;47518;51.776;9.370;2023-02-28T11:27:23;4.35;;;3.95;;
61617;SDS011;47518;51.776;9.370;2023-02-28T11:29:51;4.45;;;3.75;;
61617;SDS011;47518;51.776;9.370;2023-02-28T11:32:18;4.80;;;3.70;;
61617;SDS011;47518;51.776;9.370;2023-02-28T11:34:46;4.95;;;4.22;;
61617;SDS011;47518;51.776;9.370;2023-02-28T11:37:27;4.00;;;3.70;;
61617;SDS011;47518;51.776;9.370;2023-02-28T11:39:53;3.97;;;3.67;;
61617;SDS011;47518;51.776;9.370;2023-02-28T11:42:38;5.63;;;4.07;;
61617;SDS011;47518;51.776;9.370;2023-02-28T11:48:01;4.80;;;4.30;;
61617;SDS011;47518;51.776;9.370;2023-02-28T11:50:55;4.70;;;4.22;;
61617;SDS011;47518;51.776;9.370;2023-02-28T12:30:21;4.85;;;4.35;;
61617;SDS011;47518;51.776;9.370;2023-02-28T12:33:00;4.85;;;4.30;;
61617;SDS011;47518;51.776;9.370;2023-02-28T12:35:35;4.93;;;4.38;;
61617;SDS011;47518;51.776;9.370;2023-02-28T12:38:19;5.85;;;4.43;;
61617;SDS011;47518;51.776;9.370;2023-02-28T12:41:03;4.97;;;4.47;;
61617;SDS011;47518;51.776;9.370;2023-02-28T12:43:35;4.40;;;4.00;;
61617;SDS011;47518;51.776;9.370;2023-02-28T12:48:56;5.78;;;4.30;;
61617;SDS011;47518;51.776;9.370;2023-02-28T12:51:25;6.82;;;4.20;;
61617;SDS011;47518;51.776;9.370;2023-02-28T12:54:02;4.78;;;4.25;;
61617;SDS011;47518;51.776;9.370;2023-02-28T12:56:42;4.45;;;4.10;;
61617;SDS011;47518;51.776;9.370;2023-02-28T12:59:22;6.75;;;4.50;;
61617;SDS011;47518;51.776;9.370;2023-02-28T13:04:55;4.72;;;4.32;;
61617;SDS011;47518;51.776;9.370;2023-02-28T13:10:44;5.20;;;4.10;;
61617;SDS011;47518;51.776;9.370;2023-02-28T13:13:15;4.65;;;4.15;;
61617;SDS011;47518;51.776;9.370;2023-02-28T13:15:56;7.32;;;4.45;;
61617;SDS011;47518;51.776;9.370;2023-02-28T13:18:40;6.45;;;4.30;;
61617;SDS011;47518;51.776;9.370;2023-02-28T13:21:09;4.90;;;4.40;;
61617;SDS011;47518;51.776;9.370;2023-02-28T13:24:03;4.82;;;4.32;;
61617;SDS011;47518;51.776;9.370;2023-02-28T13:39:46;6.05;;;4.18;;
61617;SDS011;47518;51.776;9.370;2023-02-28T13:47:56;4.47;;;3.90;;
61617;SDS011;47518;51.776;9.370;2023-02-28T13:58:41;4.90;;;3.80;;
61617;SDS011;47518;51.776;9.370;2023-02-28T14:11:49;4.75;;;3.83;;
61617;SDS011;47518;51.776;9.370;2023-02-28T14:17:18;4.20;;;3.80;;
61617;SDS011;47518;51.776;9.370;2023-02-28T14:19:44;4.38;;;3.92;;
61617;SDS011;47518;51.776;9.370;2023-02-28T14:41:20;4.68;;;3.92;;
61617;SDS011;47518;51.776;9.370;2023-02-28T14:43:54;7.45;;;3.83;;
61617;SDS011;47518;51.776;9.370;2023-02-28T14:46:22;6.05;;;4.07;;
61617;SDS011;47518;51.776;9.370;2023-02-28T14:48:51;5.05;;;4.45;;
61617;SDS011;47518;51.776;9.370;2023-02-28T14:51:18;4.63;;;4.22;;
61617;SDS011;47518;51.776;9.370;2023-02-28T14:53:47;5.47;;;4.15;;
61617;SDS011;47518;51.776;9.370;2023-02-28T14:56:37;6.32;;;4.35;;
61617;SDS011;47518;51.776;9.370;2023-02-28T14:59:30;4.97;;;4.45;;
61617;SDS011;47518;51.776;9.370;2023-02-28T15:04:55;4.70;;;4.30;;
61617;SDS011;47518;51.776;9.370;2023-02-28T15:07:21;4.97;;;4.47;;
61617;SDS011;47518;51.776;9.370;2023-02-28T15:12:52;7.40;;;4.70;;
61617;SDS011;47518;51.776;9.370;2023-02-28T15:15:22;5.45;;;4.47;;
61617;SDS011;47518;51.776;9.370;2023-02-28T15:17:53;6.00;;;4.80;;
61617;SDS011;47518;51.776;9.370;2023-02-28T15:20:22;6.00;;;4.90;;
61617;SDS011;47518;51.776;9.370;2023-02-28T15:22:49;5.22;;;4.50;;
61617;SDS011;47518;51.776;9.370;2023-02-28T15:25:20;6.47;;;4.50;;
61617;SDS011;47518;51.776;9.370;2023-02-28T15:27:49;6.55;;;4.72;;
61617;SDS011;47518;51.776;9.370;2023-02-28T15:30:19;5.40;;;4.70;;
61617;SDS011;47518;51.776;9.370;2023-02-28T15:33:02;7.68;;;4.93;;
61617;SDS011;47518;51.776;9.370;2023-02-28T15:35:30;5.07;;;4.57;;
61617;SDS011;47518;51.776;9.370;2023-02-28T15:40:41;6.43;;;5.00;;
61617;SDS011;47518;51.776;9.370;2023-02-28T16:04:34;10.13;;;6.00;;
61617;SDS011;47518;51.776;9.370;2023-02-28T16:07:01;7.07;;;6.07;;
61617;SDS011;47518;51.776;9.370;2023-02-28T16:09:30;8.45;;;6.10;;
61617;SDS011;47518;51.776;9.370;2023-02-28T16:11:56;9.40;;;6.00;;
61617;SDS011;47518;51.776;9.370;2023-02-28T16:14:26;9.07;;;6.00;;
61617;SDS011;47518;51.776;9.370;2023-02-28T16:16:57;9.35;;;6.10;;
61617;SDS011;47518;51.776;9.370;2023-02-28T16:19:30;8.45;;;5.72;;
61617;SDS011;47518;51.776;9.370;2023-02-28T16:21:56;7.32;;;5.60;;
61617;SDS011;47518;51.776;9.370;2023-02-28T16:24:21;6.05;;;5.45;;
61617;SDS011;47518;51.776;9.370;2023-02-28T16:26:47;8.48;;;6.03;;
61617;SDS011;47518;51.776;9.370;2023-02-28T16:29:20;7.38;;;6.65;;
61617;SDS011;47518;51.776;9.370;2023-02-28T16:31:51;7.45;;;6.40;;
61617;SDS011;47518;51.776;9.370;2023-02-28T16:34:18;7.63;;;6.28;;
61617;SDS011;47518;51.776;9.370;2023-02-28T16:36:45;10.68;;;6.90;;
61617;SDS011;47518;51.776;9.370;2023-02-28T16:39:12;9.85;;;6.47;;
61617;SDS011;47518;51.776;9.370;2023-02-28T16:41:37;8.30;;;6.40;;
61617;SDS011;47518;51.776;9.370;2023-02-28T16:44:08;9.07;;;6.45;;
61617;SDS011;47518;51.776;9.370;2023-02-28T16:46:37;7.70;;;6.30;;
61617;SDS011;47518;51.776;9.370;2023-02-28T16:49:03;8.80;;;6.57;;
61617;SDS011;47518;51.776;9.370;2023-02-28T16:51:28;11.02;;;7.05;;
61617;SDS011;47518;51.776;9.370;2023-02-28T16:53:54;15.95;;;8.93;;
61617;SDS011;47518;51.776;9.370;2023-02-28T16:56:20;14.88;;;8.70;;
61617;SDS011;47518;51.776;9.370;2023-02-28T16:58:48;13.85;;;8.52;;
61617;SDS011;47518;51.776;9.370;2023-02-28T17:01:15;10.48;;;8.30;;
61617;SDS011;47518;51.776;9.370;2023-02-28T17:03:41;14.80;;;10.80;;
61617;SDS011;47518;51.776;9.370;2023-02-28T17:06:23;13.60;;;10.55;;
61617;SDS011;47518;51.776;9.370;2023-02-28T17:08:54;9.15;;;7.68;;
61617;SDS011;47518;51.776;9.370;2023-02-28T17:11:20;9.88;;;7.60;;
61617;SDS011;47518;51.776;9.370;2023-02-28T17:13:46;10.10;;;7.47;;
61617;SDS011;47518;51.776;9.370;2023-02-28T17:16:17;10.43;;;7.95;;
61617;SDS011;47518;51.776;9.370;2023-02-28T17:18:53;9.65;;;7.90;;
61617;SDS011;47518;51.776;9.370;2023-02-28T17:21:21;10.63;;;7.70;;
61617;SDS011;47518;51.776;9.370;2023-02-28T17:23:47;8.25;;;7.20;;
61617;SDS011;47518;51.776;9.370;2023-02-28T17:26:13;8.05;;;7.15;;
61617;SDS011;47518;51.776;9.370;2023-02-28T17:28:40;10.48;;;7.80;;
61617;SDS011;47518;51.776;9.370;2023-02-28T17:31:07;8.30;;;6.80;;
61617;SDS011;47518;51.776;9.370;2023-02-28T17:33:32;9.80;;;7.43;;
61617;SDS011;47518;51.776;9.370;2023-02-28T17:36:04;8.40;;;7.53;;
61617;SDS011;47518;51.776;9.370;2023-02-28T17:38:30;10.73;;;7.45;;
61617;SDS011;47518;51.776;9.370;2023-02-28T17:40:56;9.00;;;8.02;;
61617;SDS011;47518;51.776;9.370;2023-02-28T17:43:25;9.95;;;7.63;;
61617;SDS011;47518;51.776;9.370;2023-02-28T17:45:52;12.27;;;8.68;;
61617;SDS011;47518;51.776;9.370;2023-02-28T17:48:18;10.45;;;8.52;;
61617;SDS011;47518;51.776;9.370;2023-02-28T17:50:45;11.05;;;8.40;;
61617;SDS011;47518;51.776;9.370;2023-02-28T17:53:10;11.95;;;9.18;;
61617;SDS011;47518;51.776;9.370;2023-02-28T17:55:35;12.60;;;9.20;;
61617;SDS011;47518;51.776;9.370;2023-02-28T17:58:01;11.48;;;9.38;;
61617;SDS011;47518;51.776;9.370;2023-02-28T18:00:28;13.20;;;10.18;;
61617;SDS011;47518;51.776;9.370;2023-02-28T18:02:54;15.70;;;10.50;;
61617;SDS011;47518;51.776;9.370;2023-02-28T18:05:19;15.80;;;10.13;;
61617;SDS011;47518;51.776;9.370;2023-02-28T18:07:45;13.70;;;9.18;;
61617;SDS011;47518;51.776;9.370;2023-02-28T18:10:13;13.27;;;9.25;;
61617;SDS011;47518;51.776;9.370;2023-02-28T18:12:44;12.95;;;9.20;;
61617;SDS011;47518;51.776;9.370;2023-02-28T18:15:10;12.82;;;9.90;;
61617;SDS011;47518;51.776;9.370;2023-02-28T18:17:35;12.38;;;9.65;;
61617;SDS011;47518;51.776;9.370;2023-02-28T18:20:01;11.13;;;8.77;;
61617;SDS011;47518;51.776;9.370;2023-02-28T18:22:29;12.30;;;8.75;;
61617;SDS011;47518;51.776;9.370;2023-02-28T18:24:54;11.45;;;8.50;;
61617;SDS011;47518;51.776;9.370;2023-02-28T18:27:20;11.52;;;8.18;;
61617;SDS011;47518;51.776;9.370;2023-02-28T18:29:45;10.80;;;9.00;;
61617;SDS011;47518;51.776;9.370;2023-02-28T18:32:10;12.98;;;8.82;;
61617;SDS011;47518;51.776;9.370;2023-02-28T18:34:36;10.38;;;8.57;;
61617;SDS011;47518;51.776;9.370;2023-02-28T18:37:05;12.18;;;9.13;;
61617;SDS011;47518;51.776;9.370;2023-02-28T18:39:40;13.32;;;9.07;;
61617;SDS011;47518;51.776;9.370;2023-02-28T18:42:05;10.43;;;8.80;;
61617;SDS011;47518;51.776;9.370;2023-02-28T18:44:31;14.02;;;9.32;;
61617;SDS011;47518;51.776;9.370;2023-02-28T18:47:06;12.18;;;9.00;;
61617;SDS011;47518;51.776;9.370;2023-02-28T18:49:35;12.10;;;9.20;;
61617;SDS011;47518;51.776;9.370;2023-02-28T18:52:02;14.10;;;9.80;;